Diamantakis — SW5831 — position and weather

sailwx.info

Track history (hours):
 
Tides and Currents Weather Stations Pressure Air Temp Water Temp Dewpoint Dewpoint Depression Visibility Wind Speed Wind Dir Waves Ship Positions

Diamantakis

Last reported at 2017-Sep-10 13:00 UTC. Time now 2017-Sep-22 02:38 UTC.
Position N 40°44' E 024°59'.
Warning: this ship's position is 11 days out of date.

Length 16 m; draft 1.6 m.

Type: Fishing. MMSI: 239608000.

Date/timePositionNaut miles runAvg speedWind from/ knotsBaromVisibWave heightAir tempDewpointWater temp
2017-Sep-10 13:00N 40°44' E 024°59'1 1.3
2017-Sep-10 12:30N 40°43' E 024°59'1 2.1
2017-Sep-10 12:00N 40°43' E 024°58'1 1.7
2017-Sep-10 11:30N 40°43' E 024°57'3 5.1
2017-Sep-10 11:00N 40°41' E 024°59'1 1.6
2017-Sep-10 10:30N 40°40' E 024°59'1 1.4
2017-Sep-10 10:00N 40°40' E 024°58'1 1.9
2017-Sep-10 09:30N 40°40' E 024°57'1 1.6
2017-Sep-10 09:00N 40°40' E 024°56'0 0.5
2017-Sep-10 08:30N 40°40' E 024°56'1 1.6
2017-Sep-10 08:00N 40°40' E 024°57'1 2.3
2017-Sep-10 07:30N 40°40' E 024°58'1 2.2
2017-Sep-10 07:00N 40°40' E 024°60'3 0.1
2017-Sep-09 08:32N 40°43' E 024°59'0 2.9
2017-Sep-09 08:30N 40°43' E 024°59'1 2.6
2017-Sep-09 08:01N 40°43' E 024°57'1 1.5
2017-Sep-09 07:31N 40°43' E 024°56'1 2.7
2017-Sep-09 07:00N 40°44' E 024°55'1 2.4
2017-Sep-09 06:30N 40°45' E 024°55'1 2.5
2017-Sep-09 06:00N 40°46' E 024°55'1 2.3
2017-Sep-09 05:30N 40°47' E 024°56'3 6.6
2017-Sep-09 05:00N 40°50' E 024°59'7 0.4
2017-Sep-08 11:38N 40°43' E 024°57'0 2.6
2017-Sep-08 11:30N 40°42' E 024°57'1 2.7
2017-Sep-08 11:01N 40°42' E 024°56'3 6.6
2017-Sep-08 10:31N 40°45' E 024°55'1 2.0
2017-Sep-08 10:01N 40°46' E 024°55'1 2.5
2017-Sep-08 09:31N 40°47' E 024°55'1 3.0
2017-Sep-08 09:01N 40°46' E 024°55'2 3.4
2017-Sep-08 08:31N 40°44' E 024°55'1 2.1
2017-Sep-08 08:01N 40°43' E 024°55'1 2.2
2017-Sep-08 07:31N 40°44' E 024°56'1 3.0
2017-Sep-08 07:01N 40°45' E 024°56'1 3.0
2017-Sep-08 06:31N 40°47' E 024°55'1 1.8
2017-Sep-08 06:00N 40°48' E 024°56'1 1.2
2017-Sep-08 05:31N 40°48' E 024°57'1 2.4
2017-Sep-08 05:00N 40°48' E 024°58'1 2.6
2017-Sep-08 04:30N 40°48' E 025°00'4 7.1
2017-Sep-08 04:01N 40°51' E 025°03'4 7.6
2017-Sep-08 03:31N 40°54' E 025°05'4 7.2
2017-Sep-08 03:01N 40°58' E 025°07'  
2017-Sep-05 12:13N 40°42' E 024°58'0 2.3
2017-Sep-05 12:00N 40°43' E 024°58'1 2.3
2017-Sep-05 11:31N 40°43' E 024°60'2 3.1
2017-Sep-05 11:00N 40°42' E 024°58'1 2.8
2017-Sep-05 10:30N 40°42' E 024°56'1 2.0
2017-Sep-05 10:00N 40°42' E 024°57'1 2.2
2017-Sep-05 09:30N 40°42' E 024°56'1 2.7
2017-Sep-05 09:00N 40°42' E 024°57'1 2.5
2017-Sep-05 08:30N 40°42' E 024°59'1 1.1
2017-Sep-05 08:00N 40°42' E 024°60'1 2.3
2017-Sep-05 07:30N 40°42' E 024°58'1 2.3
2017-Sep-05 07:00N 40°42' E 024°57'2 1.0
2017-Sep-05 04:45N 40°44' E 024°58'2 7.9
2017-Sep-05 04:30N 40°46' E 024°59'4 7.4
2017-Sep-05 04:00N 40°49' E 025°01'4 7.5
2017-Sep-05 03:30N 40°52' E 025°04'4 7.8
2017-Sep-05 03:00N 40°56' E 025°06'2 0.1
2017-Sep-03 16:12N 40°58' E 025°08'1 3.4
2017-Sep-03 16:00N 40°57' E 025°07'4 8.5
2017-Sep-03 15:30N 40°54' E 025°03'13 3.4
2017-Sep-03 11:31N 40°42' E 024°56'0 2.3
2017-Sep-03 11:30N 40°42' E 024°56'1 2.1
2017-Sep-03 11:00N 40°42' E 024°58'2 3.2
2017-Sep-03 10:31N 40°42' E 024°60'1 2.6
2017-Sep-03 10:01N 40°42' E 024°58'0 0.7
2017-Sep-03 09:30N 40°42' E 024°58'1 2.4
2017-Sep-03 09:00N 40°42' E 024°56'0 0.4
2017-Sep-03 08:30N 40°42' E 024°56'3 5.3
2017-Sep-03 08:01N 40°42' E 024°60'1 2.3
2017-Sep-03 07:31N 40°42' E 024°58'1 2.5
2017-Sep-03 07:00N 40°42' E 024°57'1 1.5
2017-Sep-03 06:30N 40°42' E 024°58'1 2.7
2017-Sep-03 06:01N 40°42' E 024°59'1 2.5
2017-Sep-03 05:31N 40°42' E 024°58'1 2.4
2017-Sep-03 05:01N 40°41' E 024°56'0 0.6
2017-Sep-03 04:30N 40°41' E 024°56'4 7.0
2017-Sep-03 04:00N 40°44' E 024°59'4 8.0
2017-Sep-03 03:31N 40°47' E 025°02'2 3.5
2017-Sep-03 03:00N 40°49' E 025°02'4 7.7
2017-Sep-03 02:30N 40°53' E 025°04'4 8.1
2017-Sep-03 02:01N 40°56' E 025°06'2 0.2
2017-Sep-02 15:12N 40°58' E 025°08'1 5.1
2017-Sep-02 14:55N 40°56' E 025°07'3 8.1
2017-Sep-02 14:30N 40°53' E 025°06'4 8.1
2017-Sep-02 14:01N 40°49' E 025°04'4 8.5
2017-Sep-02 13:30N 40°45' E 025°02'4 8.3
2017-Sep-02 13:00N 40°42' E 024°60'1 2.6
2017-Sep-02 12:30N 40°41' E 024°58'1 2.7
2017-Sep-02 12:00N 40°41' E 024°57'0 0.9
2017-Sep-02 11:31N 40°41' E 024°56'3 5.8
2017-Sep-02 11:00N 40°41' E 024°60'1 1.9
2017-Sep-02 10:30N 40°41' E 024°59'1 2.0
2017-Sep-02 10:00N 40°40' E 024°57'1 2.1
2017-Sep-02 09:30N 40°40' E 024°56'1 1.8
2017-Sep-02 09:01N 40°40' E 024°57'2 4.1
2017-Sep-02 08:30N 40°40' E 024°60'1 2.6
2017-Sep-02 08:00N 40°40' E 024°58'1 2.4
2017-Sep-02 07:30N 40°40' E 024°56'1 1.1
2017-Sep-02 07:00N 40°40' E 024°56'3 6.3
2017-Sep-02 06:30N 40°41' E 024°60'1 1.3
2017-Sep-02 06:00N 40°41' E 024°59'1 2.5
2017-Sep-02 05:30N 40°41' E 024°57'1 2.3
2017-Sep-02 05:00N 40°41' E 024°56'3 5.3
2017-Sep-02 04:30N 40°42' E 024°59'3 6.8
2017-Sep-02 04:00N 40°45' E 025°01'4 7.5
2017-Sep-02 03:30N 40°48' E 025°03'4 7.1
2017-Sep-02 03:00N 40°51' E 025°05'4 7.6
2017-Sep-02 02:30N 40°55' E 025°06'  
Track history (hours):
 
Tides and Currents Weather Stations Pressure Air Temp Water Temp Dewpoint Dewpoint Depression Visibility Wind Speed Wind Dir Waves Ship Positions

Diamantakis

Last reported at 2017-Sep-10 13:00 UTC. Time now 2017-Sep-22 02:38 UTC.
Position N 40°44' E 024°59'.
Warning: this ship's position is 11 days out of date.

Length 16 m; draft 1.6 m.

Type: Fishing. MMSI: 239608000.

Date/timePositionNaut miles runAvg speedWind from/ knotsBaromVisibWave heightAir tempDewpointWater temp
2017-Sep-10 13:00N 40°44' E 024°59'1 1.3
2017-Sep-10 12:30N 40°43' E 024°59'1 2.1
2017-Sep-10 12:00N 40°43' E 024°58'1 1.7
2017-Sep-10 11:30N 40°43' E 024°57'3 5.1
2017-Sep-10 11:00N 40°41' E 024°59'1 1.6
2017-Sep-10 10:30N 40°40' E 024°59'1 1.4
2017-Sep-10 10:00N 40°40' E 024°58'1 1.9
2017-Sep-10 09:30N 40°40' E 024°57'1 1.6
2017-Sep-10 09:00N 40°40' E 024°56'0 0.5
2017-Sep-10 08:30N 40°40' E 024°56'1 1.6
2017-Sep-10 08:00N 40°40' E 024°57'1 2.3
2017-Sep-10 07:30N 40°40' E 024°58'1 2.2
2017-Sep-10 07:00N 40°40' E 024°60'3 0.1
2017-Sep-09 08:32N 40°43' E 024°59'0 2.9
2017-Sep-09 08:30N 40°43' E 024°59'1 2.6
2017-Sep-09 08:01N 40°43' E 024°57'1 1.5
2017-Sep-09 07:31N 40°43' E 024°56'1 2.7
2017-Sep-09 07:00N 40°44' E 024°55'1 2.4
2017-Sep-09 06:30N 40°45' E 024°55'1 2.5
2017-Sep-09 06:00N 40°46' E 024°55'1 2.3
2017-Sep-09 05:30N 40°47' E 024°56'3 6.6
2017-Sep-09 05:00N 40°50' E 024°59'7 0.4
2017-Sep-08 11:38N 40°43' E 024°57'0 2.6
2017-Sep-08 11:30N 40°42' E 024°57'1 2.7
2017-Sep-08 11:01N 40°42' E 024°56'3 6.6
2017-Sep-08 10:31N 40°45' E 024°55'1 2.0
2017-Sep-08 10:01N 40°46' E 024°55'1 2.5
2017-Sep-08 09:31N 40°47' E 024°55'1 3.0
2017-Sep-08 09:01N 40°46' E 024°55'2 3.4
2017-Sep-08 08:31N 40°44' E 024°55'1 2.1
2017-Sep-08 08:01N 40°43' E 024°55'1 2.2
2017-Sep-08 07:31N 40°44' E 024°56'1 3.0
2017-Sep-08 07:01N 40°45' E 024°56'1 3.0
2017-Sep-08 06:31N 40°47' E 024°55'1 1.8
2017-Sep-08 06:00N 40°48' E 024°56'1 1.2
2017-Sep-08 05:31N 40°48' E 024°57'1 2.4
2017-Sep-08 05:00N 40°48' E 024°58'1 2.6
2017-Sep-08 04:30N 40°48' E 025°00'4 7.1
2017-Sep-08 04:01N 40°51' E 025°03'4 7.6
2017-Sep-08 03:31N 40°54' E 025°05'4 7.2
2017-Sep-08 03:01N 40°58' E 025°07'  
2017-Sep-05 12:13N 40°42' E 024°58'0 2.3
2017-Sep-05 12:00N 40°43' E 024°58'1 2.3
2017-Sep-05 11:31N 40°43' E 024°60'2 3.1
2017-Sep-05 11:00N 40°42' E 024°58'1 2.8
2017-Sep-05 10:30N 40°42' E 024°56'1 2.0
2017-Sep-05 10:00N 40°42' E 024°57'1 2.2
2017-Sep-05 09:30N 40°42' E 024°56'1 2.7
2017-Sep-05 09:00N 40°42' E 024°57'1 2.5
2017-Sep-05 08:30N 40°42' E 024°59'1 1.1
2017-Sep-05 08:00N 40°42' E 024°60'1 2.3
2017-Sep-05 07:30N 40°42' E 024°58'1 2.3
2017-Sep-05 07:00N 40°42' E 024°57'2 1.0
2017-Sep-05 04:45N 40°44' E 024°58'2 7.9
2017-Sep-05 04:30N 40°46' E 024°59'4 7.4
2017-Sep-05 04:00N 40°49' E 025°01'4 7.5
2017-Sep-05 03:30N 40°52' E 025°04'4 7.8
2017-Sep-05 03:00N 40°56' E 025°06'2 0.1
2017-Sep-03 16:12N 40°58' E 025°08'1 3.4
2017-Sep-03 16:00N 40°57' E 025°07'4 8.5
2017-Sep-03 15:30N 40°54' E 025°03'13 3.4
2017-Sep-03 11:31N 40°42' E 024°56'0 2.3
2017-Sep-03 11:30N 40°42' E 024°56'1 2.1
2017-Sep-03 11:00N 40°42' E 024°58'2 3.2
2017-Sep-03 10:31N 40°42' E 024°60'1 2.6
2017-Sep-03 10:01N 40°42' E 024°58'0 0.7
2017-Sep-03 09:30N 40°42' E 024°58'1 2.4
2017-Sep-03 09:00N 40°42' E 024°56'0 0.4
2017-Sep-03 08:30N 40°42' E 024°56'3 5.3
2017-Sep-03 08:01N 40°42' E 024°60'1 2.3
2017-Sep-03 07:31N 40°42' E 024°58'1 2.5
2017-Sep-03 07:00N 40°42' E 024°57'1 1.5
2017-Sep-03 06:30N 40°42' E 024°58'1 2.7
2017-Sep-03 06:01N 40°42' E 024°59'1 2.5
2017-Sep-03 05:31N 40°42' E 024°58'1 2.4
2017-Sep-03 05:01N 40°41' E 024°56'0 0.6
2017-Sep-03 04:30N 40°41' E 024°56'4 7.0
2017-Sep-03 04:00N 40°44' E 024°59'4 8.0
2017-Sep-03 03:31N 40°47' E 025°02'2 3.5
2017-Sep-03 03:00N 40°49' E 025°02'4 7.7
2017-Sep-03 02:30N 40°53' E 025°04'4 8.1
2017-Sep-03 02:01N 40°56' E 025°06'2 0.2
2017-Sep-02 15:12N 40°58' E 025°08'1 5.1
2017-Sep-02 14:55N 40°56' E 025°07'3 8.1
2017-Sep-02 14:30N 40°53' E 025°06'4 8.1
2017-Sep-02 14:01N 40°49' E 025°04'4 8.5
2017-Sep-02 13:30N 40°45' E 025°02'4 8.3
2017-Sep-02 13:00N 40°42' E 024°60'1 2.6
2017-Sep-02 12:30N 40°41' E 024°58'1 2.7
2017-Sep-02 12:00N 40°41' E 024°57'0 0.9
2017-Sep-02 11:31N 40°41' E 024°56'3 5.8
2017-Sep-02 11:00N 40°41' E 024°60'1 1.9
2017-Sep-02 10:30N 40°41' E 024°59'1 2.0
2017-Sep-02 10:00N 40°40' E 024°57'1 2.1
2017-Sep-02 09:30N 40°40' E 024°56'1 1.8
2017-Sep-02 09:01N 40°40' E 024°57'2 4.1
2017-Sep-02 08:30N 40°40' E 024°60'1 2.6
2017-Sep-02 08:00N 40°40' E 024°58'1 2.4
2017-Sep-02 07:30N 40°40' E 024°56'1 1.1
2017-Sep-02 07:00N 40°40' E 024°56'3 6.3
2017-Sep-02 06:30N 40°41' E 024°60'1 1.3
2017-Sep-02 06:00N 40°41' E 024°59'1 2.5
2017-Sep-02 05:30N 40°41' E 024°57'1 2.3
2017-Sep-02 05:00N 40°41' E 024°56'3 5.3
2017-Sep-02 04:30N 40°42' E 024°59'3 6.8
2017-Sep-02 04:00N 40°45' E 025°01'4 7.5
2017-Sep-02 03:30N 40°48' E 025°03'4 7.1
2017-Sep-02 03:00N 40°51' E 025°05'4 7.6
2017-Sep-02 02:30N 40°55' E 025°06'  

Dump ship's entire track history